Time;durP1;ratioP1;P1;durP2;ratioP2;P2;SDS_P1;SDS_P2;PMS_P1;PMS_P2;Temp;Humidity;BMP_temperature;BMP_pressure;BME280_temperature;BME280_humidity;BME280_pressure;Samples;Min_cycle;Max_cycle;Signal;HPM_P1;HPM_P2
2022/01/19 00:00:17;;;;;;;3.43;2.77;;;6.00;99.90;;;;;;5051864;28;20201;-72
2022/01/19 00:02:45;;;;;;;4.20;2.60;;;6.00;99.90;;;;;;5052856;28;20229;-71
2022/01/19 00:05:12;;;;;;;4.07;2.87;;;6.00;99.90;;;;;;5052756;28;20300;-71
2022/01/19 00:07:40;;;;;;;3.70;2.60;;;6.00;99.90;;;;;;5049660;28;20199;-70
2022/01/19 00:10:11;;;;;;;4.40;2.60;;;6.00;99.90;;;;;;5069955;28;20246;-71
2022/01/19 00:12:42;;;;;;;3.40;2.60;;;6.00;99.90;;;;;;5070391;28;20193;-71
2022/01/19 00:15:10;;;;;;;2.57;2.07;;;6.00;99.90;;;;;;5065856;28;20239;-71
2022/01/19 00:17:37;;;;;;;3.77;2.33;;;6.00;99.90;;;;;;5062884;28;20645;-71
2022/01/19 00:20:06;;;;;;;3.63;2.57;;;6.00;99.90;;;;;;5052334;28;20308;-71
2022/01/19 00:22:33;;;;;;;3.03;2.80;;;6.10;99.90;;;;;;5070098;28;20649;-71
2022/01/19 00:25:00;;;;;;;6.30;2.87;;;6.10;99.90;;;;;;5053651;28;20255;-71
2022/01/19 00:27:27;;;;;;;5.50;2.67;;;6.10;99.90;;;;;;5051855;28;20234;-71
2022/01/19 00:29:56;;;;;;;8.67;3.13;;;6.00;99.90;;;;;;5070601;28;20197;-71
2022/01/19 00:32:24;;;;;;;4.43;2.70;;;6.10;99.90;;;;;;5063910;28;20294;-71
2022/01/19 00:34:52;;;;;;;4.87;3.07;;;6.10;99.90;;;;;;5052572;28;20197;-71
2022/01/19 00:37:19;;;;;;;3.93;2.80;;;6.10;99.90;;;;;;5070578;28;20211;-71
2022/01/19 00:39:46;;;;;;;3.10;2.00;;;6.10;99.90;;;;;;5052319;28;20293;-72
2022/01/19 00:42:13;;;;;;;2.43;1.70;;;6.10;99.90;;;;;;5051578;28;20238;-71
2022/01/19 00:44:41;;;;;;;3.60;2.20;;;6.20;99.90;;;;;;5052379;28;20194;-70
2022/01/19 00:47:10;;;;;;;1.97;1.83;;;6.20;99.90;;;;;;5051370;28;20208;-71
2022/01/19 00:49:42;;;;;;;2.57;1.97;;;6.20;99.90;;;;;;5051606;28;20659;-70
2022/01/19 00:52:09;;;;;;;1.80;1.70;;;6.20;99.90;;;;;;5051730;28;20225;-71
2022/01/19 00:54:36;;;;;;;2.73;1.70;;;6.30;99.90;;;;;;5051622;28;20206;-72
2022/01/19 00:57:04;;;;;;;3.50;1.87;;;6.30;99.90;;;;;;5051854;28;20292;-72
2022/01/19 00:59:31;;;;;;;2.63;1.77;;;6.30;99.90;;;;;;5051961;28;20258;-72
2022/01/19 01:02:01;;;;;;;2.50;1.50;;;6.30;99.90;;;;;;5051289;28;20218;-72
2022/01/19 01:04:35;;;;;;;6.40;2.20;;;6.30;99.90;;;;;;5068085;28;20581;-71
2022/01/19 01:07:03;;;;;;;1.57;1.43;;;6.40;99.90;;;;;;5069985;28;20237;-72
2022/01/19 01:09:30;;;;;;;2.67;2.10;;;6.30;99.90;;;;;;5069783;28;20194;-72
2022/01/19 01:12:01;;;;;;;1.50;1.23;;;6.30;99.90;;;;;;5069984;28;20723;-71
2022/01/19 01:18:17;;;;;;;1.67;1.13;;;6.40;99.90;;;;;;5050868;28;20657;-71
2022/01/19 01:20:08;;;;;;;1.93;1.20;;;6.40;99.90;;;;;;5069080;28;20217;-72
2022/01/19 01:22:35;;;;;;;2.27;1.83;;;6.40;99.90;;;;;;5051115;28;20483;-71
2022/01/19 01:25:03;;;;;;;2.13;1.53;;;6.40;99.90;;;;;;5052357;28;20202;-70
2022/01/19 01:27:30;;;;;;;3.33;1.20;;;6.40;99.90;;;;;;5069331;28;20213;-71
2022/01/19 01:29:57;;;;;;;4.27;1.80;;;6.40;99.90;;;;;;5052295;28;20205;-71
2022/01/19 01:32:24;;;;;;;3.73;1.43;;;6.40;99.90;;;;;;5071361;28;20568;-71
2022/01/19 01:34:51;;;;;;;1.67;1.30;;;6.40;99.90;;;;;;5055697;28;20205;-71
2022/01/19 01:37:19;;;;;;;4.00;2.03;;;6.40;99.90;;;;;;5055363;28;20197;-70
2022/01/19 01:39:48;;;;;;;1.73;1.40;;;6.50;99.90;;;;;;5055711;28;20225;-71
2022/01/19 01:42:17;;;;;;;3.13;2.17;;;6.50;99.90;;;;;;5055307;28;20237;-71
2022/01/19 01:44:47;;;;;;;2.53;2.03;;;6.50;99.90;;;;;;5055574;28;20201;-71
2022/01/19 01:47:18;;;;;;;6.97;2.53;;;6.50;99.90;;;;;;5054716;28;20209;-71
2022/01/19 01:53:25;;;;;;;2.20;1.67;;;6.40;99.90;;;;;;5072913;28;20194;-71
2022/01/19 01:55:25;;;;;;;2.67;1.30;;;6.40;99.90;;;;;;5055432;28;20194;-70
2022/01/19 01:57:54;;;;;;;4.53;1.50;;;6.40;99.90;;;;;;5054651;28;20198;-70
2022/01/19 02:00:24;;;;;;;7.87;1.77;;;6.40;99.90;;;;;;5055197;28;20234;-70
2022/01/19 02:02:54;;;;;;;2.60;1.57;;;6.30;99.90;;;;;;5053739;28;20218;-71
2022/01/19 02:05:23;;;;;;;8.13;2.03;;;6.30;99.90;;;;;;5073937;28;20194;-70
2022/01/19 02:08:04;;;;;;;2.90;1.97;;;6.40;99.90;;;;;;5055171;28;20202;-70
2022/01/19 02:10:39;;;;;;;2.23;1.60;;;6.40;99.90;;;;;;5050643;28;20289;-70
2022/01/19 02:16:11;;;;;;;3.03;1.20;;;6.40;99.90;;;;;;5073472;28;20201;-71
2022/01/19 02:21:46;;;;;;;1.90;1.60;;;6.40;99.90;;;;;;5054405;28;20603;-71
2022/01/19 02:24:17;;;;;;;3.43;1.83;;;6.40;99.90;;;;;;5055064;28;20209;-70
2022/01/19 02:26:54;;;;;;;1.97;1.40;;;6.40;99.90;;;;;;5061970;28;20202;-70
2022/01/19 02:30:07;;;;;;;1.70;1.30;;;6.40;99.90;;;;;;5072881;28;20196;-71
2022/01/19 02:40:48;;;;;;;4.47;1.37;;;6.50;99.90;;;;;;5072682;28;20684;-71
2022/01/19 02:43:21;;;;;;;5.77;2.10;;;6.50;99.90;;;;;;5072509;28;20644;-72
2022/01/19 02:51:19;;;;;;;1.63;1.10;;;6.50;99.90;;;;;;5072270;28;20193;-70
2022/01/19 02:53:48;;;;;;;2.50;1.47;;;6.50;99.90;;;;;;5072735;28;20248;-72
2022/01/19 02:56:21;;;;;;;1.70;1.10;;;6.50;99.90;;;;;;5055074;28;20205;-72
2022/01/19 02:58:53;;;;;;;4.87;1.80;;;7.10;99.90;;;;;;5069315;28;20193;-71
2022/01/19 03:09:38;;;;;;;4.07;2.30;;;6.50;99.90;;;;;;5049111;28;20217;-72
2022/01/19 03:12:06;;;;;;;4.40;1.93;;;6.50;99.90;;;;;;5054121;28;20208;-72
2022/01/19 03:14:33;;;;;;;1.20;1.20;;;6.50;99.90;;;;;;5054183;28;20244;-71
2022/01/19 03:17:00;;;;;;;3.53;2.13;;;6.40;99.90;;;;;;5053529;28;20198;-71
2022/01/19 03:19:29;;;;;;;2.03;1.80;;;6.50;99.90;;;;;;5053462;28;20229;-71
2022/01/19 03:21:56;;;;;;;10.67;2.13;;;6.50;99.90;;;;;;5053302;28;20292;-72
2022/01/19 03:24:23;;;;;;;3.67;2.10;;;6.50;99.90;;;;;;5071422;28;20260;-71
2022/01/19 03:26:52;;;;;;;3.80;2.20;;;6.50;99.90;;;;;;5053875;28;20539;-71
2022/01/19 03:29:26;;;;;;;5.20;2.20;;;6.40;99.90;;;;;;5053834;28;20203;-71
2022/01/19 03:31:53;;;;;;;5.23;2.17;;;6.40;99.90;;;;;;5053426;28;20205;-71
2022/01/19 03:34:20;;;;;;;3.83;1.80;;;6.40;99.90;;;;;;5053085;28;20201;-70
2022/01/19 03:36:53;;;;;;;2.60;2.40;;;6.40;99.90;;;;;;5053564;28;20233;-71
2022/01/19 03:39:23;;;;;;;4.30;2.27;;;6.40;99.90;;;;;;5053490;28;20263;-71
2022/01/19 03:41:51;;;;;;;5.83;2.73;;;6.30;99.90;;;;;;5053451;28;20211;-71
2022/01/19 03:44:19;;;;;;;6.10;2.80;;;6.30;99.90;;;;;;5071136;28;20202;-71
2022/01/19 03:46:55;;;;;;;2.73;1.90;;;6.30;99.90;;;;;;5053279;28;20194;-70
2022/01/19 03:49:24;;;;;;;2.73;2.30;;;6.30;99.90;;;;;;5050236;28;20244;-71
2022/01/19 03:51:58;;;;;;;7.83;2.73;;;6.30;99.90;;;;;;5053019;28;20741;-71
2022/01/19 03:54:25;;;;;;;9.87;2.70;;;6.30;99.90;;;;;;5071136;28;20280;-71
2022/01/19 03:56:54;;;;;;;2.93;2.50;;;6.20;99.90;;;;;;5052807;28;20210;-71
2022/01/19 03:59:21;;;;;;;4.73;2.90;;;6.30;99.90;;;;;;5057803;28;20260;-71
2022/01/19 04:01:52;;;;;;;7.07;3.00;;;6.30;99.90;;;;;;5052257;28;20648;-71
2022/01/19 04:04:34;;;;;;;3.23;2.47;;;6.30;99.90;;;;;;5050796;28;20236;-70
2022/01/19 04:07:09;;;;;;;4.43;2.53;;;6.30;99.90;;;;;;5049251;28;20195;-71
2022/01/19 04:09:40;;;;;;;2.87;2.50;;;6.30;99.90;;;;;;5048036;28;20206;-71
2022/01/19 04:12:16;;;;;;;4.57;3.10;;;6.30;99.90;;;;;;5052465;28;20209;-71
2022/01/19 04:14:43;;;;;;;6.00;3.00;;;6.20;99.90;;;;;;5052936;28;20616;-71
2022/01/19 04:17:13;;;;;;;2.83;2.63;;;6.20;99.90;;;;;;5051806;28;20224;-71
2022/01/19 04:19:43;;;;;;;7.10;3.30;;;6.20;99.90;;;;;;5052373;28;20218;-71
2022/01/19 04:22:18;;;;;;;2.97;2.40;;;6.20;99.90;;;;;;5052636;28;20305;-71
2022/01/19 04:24:47;;;;;;;2.13;1.80;;;6.20;99.90;;;;;;5052762;28;20206;-70
2022/01/19 04:27:33;;;;;;;2.33;2.07;;;6.20;99.90;;;;;;5052282;28;20284;-71
2022/01/19 04:30:07;;;;;;;2.93;2.17;;;6.30;99.90;;;;;;5048674;28;20221;-73
2022/01/19 04:33:08;;;;;;;3.37;2.50;;;6.30;99.90;;;;;;5065069;28;20352;-72
2022/01/19 04:35:50;;;;;;;5.10;3.00;;;6.30;99.90;;;;;;5052795;28;20226;-72
2022/01/19 05:03:44;;;;;;;3.97;3.13;;;6.00;99.90;;;;;;5034425;28;20709;-71
2022/01/19 05:06:23;;;;;;;6.40;3.57;;;6.30;99.90;;;;;;5051400;28;20546;-71
2022/01/19 05:09:07;;;;;;;10.13;4.30;;;6.30;99.90;;;;;;5070122;28;20199;-70
2022/01/19 05:14:19;;;;;;;7.30;3.67;;;6.20;99.90;;;;;;5052134;28;20197;-71
2022/01/19 05:16:48;;;;;;;8.73;4.10;;;6.20;99.90;;;;;;5055333;28;20277;-71
2022/01/19 05:19:17;;;;;;;7.63;4.63;;;6.10;99.90;;;;;;5051214;28;20627;-70
2022/01/19 05:21:48;;;;;;;6.07;4.07;;;6.10;99.90;;;;;;5051836;28;20206;-73
2022/01/19 05:24:15;;;;;;;7.43;4.40;;;6.10;99.90;;;;;;5069616;28;20205;-70
2022/01/19 05:26:59;;;;;;;7.67;3.77;;;6.00;99.90;;;;;;5052210;28;20229;-72
2022/01/19 05:29:33;;;;;;;10.43;5.77;;;6.00;99.90;;;;;;5051637;28;20202;-71
2022/01/19 05:32:01;;;;;;;10.73;5.20;;;6.00;99.90;;;;;;5069366;28;20569;-70
2022/01/19 05:34:28;;;;;;;11.10;4.90;;;6.00;99.90;;;;;;5051151;28;20251;-71
2022/01/19 05:37:05;;;;;;;12.70;5.73;;;6.00;99.90;;;;;;5051857;28;20645;-71
2022/01/19 05:39:51;;;;;;;10.33;4.60;;;6.00;99.90;;;;;;5070144;28;20364;-71
2022/01/19 05:42:46;;;;;;;13.03;4.63;;;5.90;99.90;;;;;;5051306;28;20197;-71
2022/01/19 05:45:13;;;;;;;7.40;5.10;;;5.90;99.90;;;;;;5052078;28;20205;-72
2022/01/19 05:47:42;;;;;;;10.00;4.60;;;5.90;99.90;;;;;;5050937;28;20684;-71
2022/01/19 05:50:10;;;;;;;6.57;4.80;;;5.90;99.90;;;;;;5051641;28;20280;-71
2022/01/19 05:52:37;;;;;;;11.70;5.00;;;5.90;99.90;;;;;;5051164;28;20202;-71
2022/01/19 05:55:05;;;;;;;7.50;5.10;;;5.90;99.90;;;;;;5051898;28;20295;-71
2022/01/19 05:57:32;;;;;;;9.83;4.90;;;5.90;99.90;;;;;;5051234;28;20216;-71
2022/01/19 06:00:00;;;;;;;7.20;4.57;;;5.90;99.90;;;;;;5051433;28;20222;-70
2022/01/19 06:02:30;;;;;;;6.50;4.33;;;5.90;99.90;;;;;;5049961;28;20206;-71
2022/01/19 06:04:58;;;;;;;4.73;3.23;;;5.90;99.90;;;;;;5051970;28;20528;-71
2022/01/19 06:07:43;;;;;;;8.57;4.73;;;5.90;99.90;;;;;;5051483;28;20670;-71
2022/01/19 06:10:45;;;;;;;12.70;5.50;;;5.90;99.90;;;;;;5058201;28;20201;-72
2022/01/19 06:13:17;;;;;;;5.70;3.83;;;5.90;99.90;;;;;;5051037;28;20243;-70
2022/01/19 06:15:45;;;;;;;8.40;4.90;;;5.90;99.90;;;;;;5070176;28;20197;-71
2022/01/19 06:18:13;;;;;;;7.00;4.00;;;5.90;99.90;;;;;;5052039;28;20217;-70
2022/01/19 06:20:42;;;;;;;4.23;3.53;;;5.90;99.90;;;;;;5073347;28;20214;-71
2022/01/19 06:23:10;;;;;;;6.43;3.90;;;5.90;99.90;;;;;;5071799;28;20251;-71
2022/01/19 06:25:46;;;;;;;3.33;3.03;;;5.90;99.90;;;;;;5054862;28;20196;-71
2022/01/19 06:28:13;;;;;;;9.83;5.27;;;6.00;99.90;;;;;;5054667;28;20300;-71
2022/01/19 06:30:41;;;;;;;11.00;5.43;;;5.90;99.90;;;;;;5054606;28;20272;-71
2022/01/19 06:33:08;;;;;;;6.73;4.50;;;5.90;99.90;;;;;;5054324;28;20216;-71
2022/01/19 06:35:36;;;;;;;8.70;5.87;;;5.90;99.90;;;;;;5055038;28;20661;-72
2022/01/19 06:38:25;;;;;;;9.50;5.33;;;5.90;99.90;;;;;;5054464;28;20408;-72
2022/01/19 06:41:22;;;;;;;8.67;4.97;;;5.80;99.90;;;;;;5054390;28;20240;-71
2022/01/19 06:43:50;;;;;;;11.53;5.43;;;5.80;99.90;;;;;;5054334;28;20604;-71
2022/01/19 06:46:17;;;;;;;10.17;5.57;;;5.80;99.90;;;;;;5054224;28;20354;-70
2022/01/19 06:48:44;;;;;;;7.63;5.10;;;5.80;99.90;;;;;;5053830;28;20231;-71
2022/01/19 06:51:13;;;;;;;8.37;4.27;;;5.80;99.90;;;;;;5054380;28;20561;-71
2022/01/19 06:53:47;;;;;;;12.10;5.90;;;5.70;99.90;;;;;;5054086;28;20201;-71
2022/01/19 06:56:24;;;;;;;8.87;5.33;;;5.70;99.90;;;;;;5053423;28;20352;-70
2022/01/19 06:58:58;;;;;;;9.43;4.97;;;5.70;99.90;;;;;;5054122;28;20204;-71
2022/01/19 07:01:35;;;;;;;9.00;5.13;;;5.70;99.90;;;;;;5054355;28;20216;-71
2022/01/19 07:04:17;;;;;;;7.43;4.30;;;5.70;99.90;;;;;;5051198;28;20302;-71
2022/01/19 07:06:44;;;;;;;8.17;5.33;;;5.70;99.90;;;;;;5054673;28;20197;-71
2022/01/19 07:09:26;;;;;;;4.43;3.67;;;5.70;99.90;;;;;;5054766;28;20752;-71
2022/01/19 07:11:56;;;;;;;12.13;6.00;;;5.70;99.90;;;;;;5054884;28;20202;-71
2022/01/19 07:14:23;;;;;;;9.67;5.03;;;5.70;99.90;;;;;;5068593;28;20206;-71
2022/01/19 07:16:54;;;;;;;6.87;4.43;;;5.70;99.90;;;;;;5041806;28;20294;-71
2022/01/19 07:19:21;;;;;;;5.70;3.77;;;5.70;99.90;;;;;;5053200;28;20200;-71
2022/01/19 07:21:50;;;;;;;2.90;2.60;;;5.80;99.90;;;;;;5059588;28;20214;-71
2022/01/19 07:24:17;;;;;;;3.10;2.77;;;5.80;99.90;;;;;;5053802;28;20211;-72
2022/01/19 07:26:46;;;;;;;2.67;2.40;;;5.80;99.90;;;;;;5043335;28;20292;-72
2022/01/19 07:29:14;;;;;;;6.23;3.40;;;5.80;99.90;;;;;;5053718;28;20202;-72
2022/01/19 07:31:44;;;;;;;7.90;4.93;;;5.80;99.90;;;;;;5060797;28;20670;-71
2022/01/19 07:34:12;;;;;;;6.50;4.30;;;5.80;99.90;;;;;;5052898;28;20228;-72
2022/01/19 07:36:42;;;;;;;4.97;3.40;;;5.80;99.90;;;;;;5067525;28;20218;-70
2022/01/19 07:39:10;;;;;;;6.70;4.50;;;5.80;99.90;;;;;;5053377;28;20309;-71
2022/01/19 07:41:38;;;;;;;6.87;3.67;;;5.80;99.90;;;;;;5053425;28;20232;-71
2022/01/19 07:44:25;;;;;;;5.77;3.23;;;5.90;99.90;;;;;;5067516;28;20211;-70
2022/01/19 07:47:11;;;;;;;7.07;4.87;;;5.90;99.90;;;;;;5070619;28;20257;-71
2022/01/19 07:49:57;;;;;;;9.47;5.97;;;5.90;99.90;;;;;;5072170;28;20201;-71
2022/01/19 07:52:42;;;;;;;9.60;6.10;;;5.80;99.90;;;;;;5068405;28;20207;-71
2022/01/19 07:55:46;;;;;;;9.30;5.00;;;5.80;99.90;;;;;;5050965;28;20691;-71
2022/01/19 07:58:27;;;;;;;9.47;5.37;;;5.80;99.90;;;;;;5053033;28;20676;-72
2022/01/19 08:01:10;;;;;;;8.50;5.30;;;5.70;99.90;;;;;;5053060;28;20681;-72
2022/01/19 08:03:47;;;;;;;10.27;5.70;;;5.80;99.90;;;;;;5046989;28;20230;-71
2022/01/19 08:06:21;;;;;;;6.63;4.57;;;5.80;99.90;;;;;;5044272;28;20252;-71
2022/01/19 08:08:50;;;;;;;8.13;5.03;;;5.80;99.90;;;;;;5049901;28;20627;-70
2022/01/19 08:11:18;;;;;;;5.70;4.63;;;5.90;99.90;;;;;;5047933;28;20635;-71
2022/01/19 08:13:49;;;;;;;6.97;4.77;;;5.90;99.90;;;;;;5049621;28;20205;-71
2022/01/19 08:16:25;;;;;;;13.27;6.97;;;5.90;99.90;;;;;;5049314;28;20205;-71
2022/01/19 08:18:52;;;;;;;16.57;6.73;;;5.90;99.90;;;;;;5050401;28;20201;-72
2022/01/19 08:21:21;;;;;;;17.50;7.07;;;5.90;99.90;;;;;;5048950;28;20218;-71
2022/01/19 08:23:55;;;;;;;16.77;6.97;;;5.90;99.90;;;;;;5049846;28;20574;-71
2022/01/19 08:26:22;;;;;;;15.23;7.47;;;5.80;99.90;;;;;;5050792;28;20316;-72
2022/01/19 08:28:55;;;;;;;12.67;7.60;;;5.70;99.90;;;;;;5049356;28;20200;-71
2022/01/19 08:31:23;;;;;;;14.93;7.33;;;5.70;99.90;;;;;;5048470;28;20217;-71
2022/01/19 08:34:09;;;;;;;16.30;7.17;;;5.60;99.90;;;;;;5050414;28;20537;-71
2022/01/19 08:36:54;;;;;;;14.73;7.93;;;5.50;99.90;;;;;;5051339;28;20204;-71
2022/01/19 08:39:26;;;;;;;22.50;8.37;;;5.50;99.90;;;;;;5049495;28;20573;-72
2022/01/19 08:41:55;;;;;;;14.50;7.80;;;5.50;99.90;;;;;;5048935;28;20305;-72
2022/01/19 08:44:23;;;;;;;14.83;7.87;;;5.50;99.90;;;;;;5045325;28;20300;-72
2022/01/19 08:46:57;;;;;;;9.93;6.60;;;5.50;99.90;;;;;;5049079;28;20218;-71
2022/01/19 08:49:31;;;;;;;13.93;7.57;;;5.60;99.90;;;;;;5047981;28;20199;-71
2022/01/19 08:52:24;;;;;;;17.03;8.07;;;5.60;99.90;;;;;;5043651;28;20220;-71
2022/01/19 08:55:07;;;;;;;15.00;8.53;;;5.60;99.90;;;;;;5049044;28;20201;-71
2022/01/19 08:57:34;;;;;;;14.47;8.60;;;5.60;99.90;;;;;;5049233;28;20246;-71
2022/01/19 09:00:02;;;;;;;17.87;8.50;;;5.60;99.90;;;;;;5048848;28;20213;-71
2022/01/19 09:02:45;;;;;;;14.87;7.43;;;5.60;99.90;;;;;;5049130;28;20213;-71
2022/01/19 09:05:15;;;;;;;14.47;8.53;;;5.70;99.90;;;;;;5068156;28;20185;-71
2022/01/19 09:07:42;;;;;;;17.33;8.73;;;5.70;99.90;;;;;;5069610;28;20541;-71
2022/01/19 09:10:12;;;;;;;13.23;7.97;;;5.80;99.90;;;;;;5069366;28;20193;-71
2022/01/19 09:12:39;;;;;;;12.67;7.30;;;5.80;99.90;;;;;;5070026;28;20247;-70
2022/01/19 09:15:08;;;;;;;10.20;6.07;;;5.80;99.90;;;;;;5069461;28;20193;-71
2022/01/19 09:17:37;;;;;;;10.97;6.70;;;5.90;99.90;;;;;;5069109;28;20284;-71
2022/01/19 09:20:07;;;;;;;12.80;6.90;;;5.90;99.90;;;;;;5070143;28;20186;-71
2022/01/19 09:22:35;;;;;;;12.73;7.83;;;5.90;99.90;;;;;;5069778;28;20187;-71
2022/01/19 09:25:04;;;;;;;19.73;7.97;;;6.00;99.90;;;;;;5052344;28;20251;-71
2022/01/19 09:27:38;;;;;;;14.07;8.27;;;5.90;99.90;;;;;;5051568;28;20303;-72
2022/01/19 09:30:07;;;;;;;14.37;7.80;;;5.80;99.90;;;;;;5059847;28;20269;-72
2022/01/19 09:32:41;;;;;;;13.27;7.97;;;5.90;99.90;;;;;;5050654;28;20197;-72
2022/01/19 09:35:10;;;;;;;11.60;7.10;;;5.90;99.90;;;;;;5051814;28;20611;-71
2022/01/19 09:37:39;;;;;;;19.87;8.87;;;5.90;99.90;;;;;;5069341;28;20189;-72
2022/01/19 09:40:09;;;;;;;16.50;8.37;;;5.90;99.90;;;;;;5052325;28;20723;-72
2022/01/19 09:42:39;;;;;;;21.90;8.50;;;5.90;99.90;;;;;;5051224;28;20320;-70
2022/01/19 09:45:06;;;;;;;19.57;8.43;;;5.90;99.90;;;;;;5051733;28;20255;-72
2022/01/19 09:47:35;;;;;;;15.53;8.00;;;5.90;99.90;;;;;;5049998;28;20266;-72
2022/01/19 09:50:06;;;;;;;13.20;7.67;;;5.90;99.90;;;;;;5052023;28;20569;-72
2022/01/19 09:52:33;;;;;;;11.90;6.90;;;5.90;99.90;;;;;;5052009;28;20204;-70
2022/01/19 09:55:00;;;;;;;12.27;7.80;;;5.90;99.90;;;;;;5056095;28;20212;-71
2022/01/19 09:57:27;;;;;;;15.50;7.53;;;5.90;99.90;;;;;;5072913;28;20345;-71
2022/01/19 09:59:54;;;;;;;14.20;7.27;;;6.00;99.90;;;;;;5073760;28;20544;-70
2022/01/19 10:02:22;;;;;;;13.17;7.50;;;6.10;99.90;;;;;;5073019;28;20220;-71
2022/01/19 10:04:50;;;;;;;13.27;7.37;;;6.20;99.90;;;;;;5055000;28;20200;-72
2022/01/19 10:07:21;;;;;;;14.53;7.00;;;6.20;99.90;;;;;;5052260;28;20253;-73
2022/01/19 10:09:54;;;;;;;12.53;7.10;;;6.30;99.90;;;;;;5051796;28;20205;-72
2022/01/19 10:18:14;;;;;;;16.80;7.17;;;6.50;99.90;;;;;;5050410;28;20215;-71
2022/01/19 10:20:45;;;;;;;15.57;7.10;;;6.50;99.90;;;;;;5073739;28;20632;-72
2022/01/19 10:23:37;;;;;;;17.57;7.70;;;6.60;99.90;;;;;;5072306;28;20600;-72
2022/01/19 10:26:06;;;;;;;17.93;7.80;;;6.70;99.90;;;;;;5065771;28;20303;-70
2022/01/19 10:29:00;;;;;;;13.20;7.13;;;6.70;99.90;;;;;;5072575;28;20229;-70
2022/01/19 10:31:29;;;;;;;10.57;7.00;;;6.80;99.90;;;;;;5072063;28;20246;-71
2022/01/19 10:34:14;;;;;;;11.43;6.33;;;6.80;99.90;;;;;;5072194;28;20218;-71
2022/01/19 10:36:46;;;;;;;14.80;7.57;;;6.90;99.90;;;;;;5072910;28;20204;-72
2022/01/19 10:39:15;;;;;;;11.27;5.83;;;7.00;99.90;;;;;;5072346;28;20282;-72
2022/01/19 10:42:04;;;;;;;11.90;5.87;;;7.10;99.90;;;;;;5072638;28;20228;-71
2022/01/19 10:44:33;;;;;;;11.60;6.87;;;7.20;99.90;;;;;;5059494;28;20565;-70
2022/01/19 10:47:00;;;;;;;8.63;5.23;;;7.30;99.90;;;;;;5071573;28;20307;-72
2022/01/19 10:49:27;;;;;;;12.80;7.17;;;7.40;99.90;;;;;;5054254;28;20687;-71
2022/01/19 10:51:58;;;;;;;10.13;6.43;;;7.40;99.90;;;;;;5071763;28;20192;-71
2022/01/19 10:54:30;;;;;;;11.50;5.77;;;7.40;99.90;;;;;;5072713;28;20191;-71
2022/01/19 10:56:58;;;;;;;14.30;7.77;;;7.50;99.90;;;;;;5053970;28;20671;-71
2022/01/19 10:59:33;;;;;;;10.37;6.13;;;7.60;99.90;;;;;;5072592;28;20249;-70
2022/01/19 11:02:02;;;;;;;10.07;6.53;;;7.60;99.90;;;;;;5070983;28;20191;-71
2022/01/19 11:04:31;;;;;;;9.93;6.03;;;7.60;99.90;;;;;;5046929;28;20707;-72
2022/01/19 11:07:02;;;;;;;12.23;6.70;;;7.70;99.90;;;;;;5049761;28;20211;-72
2022/01/19 11:09:35;;;;;;;13.07;6.97;;;7.70;99.90;;;;;;5054178;28;20209;-71
2022/01/19 11:12:06;;;;;;;8.03;5.03;;;7.60;99.90;;;;;;5060065;28;20243;-71
2022/01/19 11:14:40;;;;;;;13.33;6.83;;;7.60;99.90;;;;;;5053990;28;20238;-71
2022/01/19 11:17:12;;;;;;;11.07;5.50;;;7.60;99.90;;;;;;5071478;28;20199;-71
2022/01/19 11:19:40;;;;;;;12.10;6.93;;;7.60;99.90;;;;;;5053775;28;20675;-72
2022/01/19 11:22:24;;;;;;;7.77;4.60;;;7.50;99.90;;;;;;5071809;28;20288;-72
2022/01/19 11:25:11;;;;;;;7.77;4.27;;;7.50;99.90;;;;;;5055982;28;20205;-71
2022/01/19 11:27:40;;;;;;;10.90;5.67;;;7.60;99.90;;;;;;5071459;28;20192;-72
2022/01/19 11:30:13;;;;;;;9.80;6.17;;;7.70;99.90;;;;;;5064532;28;20201;-71
2022/01/19 11:32:41;;;;;;;7.60;5.37;;;7.60;99.90;;;;;;5053312;28;20559;-72
2022/01/19 11:35:13;;;;;;;6.83;4.80;;;7.60;99.90;;;;;;5054298;28;20204;-73
2022/01/19 11:37:42;;;;;;;7.30;4.70;;;7.60;99.90;;;;;;5071675;28;20193;-71
2022/01/19 11:40:14;;;;;;;6.83;4.37;;;7.60;99.90;;;;;;5071598;28;20200;-71
2022/01/19 11:42:43;;;;;;;8.33;5.07;;;7.70;99.90;;;;;;5053126;28;20320;-71
2022/01/19 11:45:31;;;;;;;7.27;5.03;;;7.70;99.90;;;;;;5072405;28;20220;-71
2022/01/19 11:48:14;;;;;;;10.47;5.80;;;7.80;99.90;;;;;;5050333;28;20200;-72
2022/01/19 11:50:42;;;;;;;10.13;6.03;;;7.80;99.90;;;;;;5071770;28;20916;-72
2022/01/19 11:53:15;;;;;;;11.73;6.83;;;7.80;99.90;;;;;;5068774;28;20458;-72
2022/01/19 11:56:03;;;;;;;13.50;7.27;;;7.80;99.90;;;;;;5069462;28;20288;-71
2022/01/19 11:58:30;;;;;;;18.70;9.50;;;7.70;99.90;;;;;;5052763;28;20223;-71
2022/01/19 12:00:58;;;;;;;18.00;9.23;;;7.60;99.90;;;;;;5072079;28;20287;-72
2022/01/19 12:03:27;;;;;;;12.00;6.90;;;7.50;99.90;;;;;;5069226;28;20236;-71
2022/01/19 12:05:56;;;;;;;11.20;6.30;;;7.40;99.90;;;;;;5053746;28;20650;-71
2022/01/19 12:08:30;;;;;;;15.77;8.47;;;7.40;99.90;;;;;;5053691;28;20269;-70
2022/01/19 12:11:02;;;;;;;13.50;7.40;;;7.40;99.90;;;;;;5054266;28;20303;-72
2022/01/19 12:13:55;;;;;;;11.70;6.40;;;7.30;99.90;;;;;;5071012;28;20259;-71
2022/01/19 12:16:33;;;;;;;11.07;6.43;;;7.40;99.90;;;;;;5052854;28;20833;-72
2022/01/19 12:19:03;;;;;;;9.13;6.27;;;7.40;99.90;;;;;;5052421;28;20595;-71
2022/01/19 12:21:43;;;;;;;15.30;7.83;;;7.40;99.90;;;;;;5070322;28;20235;-71
2022/01/19 12:24:19;;;;;;;18.20;8.13;;;7.40;99.90;;;;;;5070763;28;20271;-71
2022/01/19 12:26:53;;;;;;;13.13;6.50;;;7.50;99.90;;;;;;5062517;28;20279;-71
2022/01/19 12:29:44;;;;;;;14.70;8.00;;;7.50;99.90;;;;;;5052724;28;20203;-71
2022/01/19 12:32:37;;;;;;;16.77;8.30;;;7.60;99.90;;;;;;5069724;28;20221;-71
2022/01/19 12:35:11;;;;;;;11.90;6.37;;;7.60;99.90;;;;;;5035781;28;20246;-71
2022/01/19 12:37:41;;;;;;;8.90;5.87;;;7.60;99.90;;;;;;5052551;28;20270;-71
2022/01/19 12:40:33;;;;;;;16.90;8.73;;;7.50;99.90;;;;;;5052041;28;20569;-71
2022/01/19 12:43:04;;;;;;;15.13;7.83;;;7.50;99.90;;;;;;5068332;28;20430;-71
2022/01/19 12:45:33;;;;;;;11.83;6.53;;;7.50;99.90;;;;;;5051751;28;20202;-70
2022/01/19 12:48:01;;;;;;;15.60;6.87;;;7.40;99.90;;;;;;5069180;28;20545;-71
2022/01/19 12:50:43;;;;;;;10.00;5.57;;;7.40;99.90;;;;;;5070929;28;20676;-71
2022/01/19 12:53:19;;;;;;;6.80;4.30;;;7.40;99.90;;;;;;5051714;28;20552;-72
2022/01/19 12:55:48;;;;;;;5.73;4.00;;;7.40;99.90;;;;;;5051280;28;20200;-72
2022/01/19 12:58:22;;;;;;;5.40;4.17;;;7.40;99.90;;;;;;5067847;28;20189;-72
2022/01/19 13:00:52;;;;;;;9.33;4.60;;;7.50;99.90;;;;;;5050459;28;20192;-72
2022/01/19 13:03:26;;;;;;;12.97;7.47;;;7.50;99.90;;;;;;5067767;28;20229;-72
2022/01/19 13:05:58;;;;;;;11.37;6.93;;;7.40;99.90;;;;;;5052999;28;20219;-70
2022/01/19 13:08:29;;;;;;;11.70;6.47;;;7.50;99.90;;;;;;5070113;28;20241;-72
2022/01/19 13:11:04;;;;;;;8.43;5.30;;;7.50;99.90;;;;;;5070887;28;20657;-72
2022/01/19 13:13:46;;;;;;;9.77;5.73;;;7.40;99.90;;;;;;5069242;28;20181;-73
2022/01/19 13:16:14;;;;;;;7.30;4.40;;;7.40;99.90;;;;;;5051431;28;20199;-70
2022/01/19 13:18:44;;;;;;;9.53;5.80;;;7.40;99.90;;;;;;5051303;28;20295;-71
2022/01/19 13:21:15;;;;;;;15.53;7.90;;;7.30;99.90;;;;;;5070342;28;20271;-71
2022/01/19 13:23:55;;;;;;;8.60;5.70;;;7.30;99.90;;;;;;5070755;28;20261;-72
2022/01/19 13:26:23;;;;;;;7.77;5.00;;;7.30;99.90;;;;;;5051556;28;20203;-72
2022/01/19 13:28:52;;;;;;;5.60;4.30;;;7.30;99.90;;;;;;5055441;28;20612;-72
2022/01/19 13:31:21;;;;;;;9.20;5.43;;;7.20;99.90;;;;;;5074148;28;20184;-71
2022/01/19 13:34:01;;;;;;;7.87;5.07;;;7.20;99.90;;;;;;5072847;28;20664;-71
2022/01/19 13:36:30;;;;;;;8.90;5.40;;;7.20;99.90;;;;;;5056090;28;20319;-71
2022/01/19 13:38:58;;;;;;;13.47;6.70;;;7.10;99.90;;;;;;5051758;28;21397;-71
2022/01/19 13:41:26;;;;;;;10.17;5.20;;;7.10;99.90;;;;;;5073454;28;20200;-72
2022/01/19 13:44:04;;;;;;;5.63;4.23;;;7.10;99.90;;;;;;5073974;28;20253;-71
2022/01/19 13:46:32;;;;;;;7.73;5.17;;;7.00;99.90;;;;;;5056064;28;20291;-71
2022/01/19 13:49:01;;;;;;;7.67;4.50;;;7.10;99.90;;;;;;5072801;28;20221;-71
2022/01/19 13:51:30;;;;;;;6.77;3.97;;;7.00;99.90;;;;;;5055197;28;20205;-71
2022/01/19 13:54:02;;;;;;;5.20;3.43;;;7.00;99.90;;;;;;5072505;28;20206;-71
2022/01/19 13:56:31;;;;;;;5.57;3.83;;;7.10;99.90;;;;;;5073730;28;20225;-71
2022/01/19 13:59:05;;;;;;;4.63;3.33;;;7.00;99.90;;;;;;5071491;28;20193;-72
2022/01/19 14:01:38;;;;;;;4.33;3.03;;;7.00;99.90;;;;;;5049922;28;20284;-71
2022/01/19 14:04:09;;;;;;;4.43;3.23;;;7.00;99.90;;;;;;5069523;28;20224;-71
2022/01/19 14:06:39;;;;;;;3.80;3.00;;;7.00;99.90;;;;;;5074367;28;20692;-74
2022/01/19 14:09:15;;;;;;;9.07;4.23;;;7.00;99.90;;;;;;5073292;28;20562;-72
2022/01/19 14:11:43;;;;;;;6.73;4.23;;;7.00;99.90;;;;;;5055190;28;20201;-72
2022/01/19 14:14:14;;;;;;;10.90;5.67;;;7.00;99.90;;;;;;5073331;28;20218;-71
2022/01/19 14:16:47;;;;;;;6.50;4.50;;;7.00;99.90;;;;;;5072801;28;20274;-72
2022/01/19 14:19:23;;;;;;;11.13;6.00;;;6.90;99.90;;;;;;5072731;28;20318;-71
2022/01/19 14:22:10;;;;;;;11.30;5.80;;;6.90;99.90;;;;;;5055398;28;20219;-72
2022/01/19 14:25:02;;;;;;;8.53;4.67;;;6.90;99.90;;;;;;5072719;28;20276;-70
2022/01/19 14:27:42;;;;;;;10.33;4.57;;;6.80;99.90;;;;;;5047443;28;20221;-71